createdAt,value
2023-04-16T00:00:43.389Z,93.98
2023-04-16T00:01:43.544Z,93.99
2023-04-16T00:02:43.820Z,93.85
2023-04-16T00:03:44.057Z,93.93
2023-04-16T00:04:43.958Z,94.02
2023-04-16T00:05:44.012Z,93.98
2023-04-16T00:06:44.137Z,94.01
2023-04-16T00:07:44.275Z,94.09
2023-04-16T00:08:44.385Z,94.07
2023-04-16T00:09:44.553Z,94.02
2023-04-16T00:10:44.638Z,93.94
2023-04-16T00:11:44.752Z,93.92
2023-04-16T00:12:44.953Z,93.95
2023-04-16T00:13:44.981Z,94.00
2023-04-16T00:14:45.206Z,93.95
2023-04-16T00:15:45.198Z,93.93
2023-04-16T00:16:45.382Z,93.98
2023-04-16T00:17:45.586Z,94.02
2023-04-16T00:18:45.569Z,94.05
2023-04-16T00:19:45.726Z,94.09
2023-04-16T00:20:45.835Z,94.02
2023-04-16T00:21:45.921Z,93.96
2023-04-16T00:22:46.160Z,93.94
2023-04-16T00:23:46.231Z,94.03
2023-04-16T00:24:46.330Z,93.99
2023-04-16T00:25:46.490Z,93.97
2023-04-16T00:26:46.671Z,94.04
2023-04-16T00:27:46.756Z,94.08
2023-04-16T00:28:46.842Z,94.12
2023-04-16T00:29:46.982Z,94.09
2023-04-16T00:30:47.122Z,94.11
2023-04-16T00:31:47.285Z,94.16
2023-04-16T00:32:47.405Z,94.23
2023-04-16T00:33:47.461Z,94.08
2023-04-16T00:34:47.696Z,94.14
2023-04-16T00:35:47.691Z,94.20
2023-04-16T00:36:47.820Z,94.12
2023-04-16T00:37:47.972Z,94.21
2023-04-16T00:38:48.165Z,94.12
2023-04-16T00:39:48.164Z,94.17
2023-04-16T00:40:48.371Z,94.15
2023-04-16T00:41:48.461Z,94.24
2023-04-16T00:42:48.694Z,94.15
2023-04-16T00:43:48.723Z,94.17
2023-04-16T00:44:48.828Z,94.20
2023-04-16T00:45:49.018Z,94.23
2023-04-16T00:46:49.190Z,94.15
2023-04-16T00:47:49.399Z,94.14
2023-04-16T00:48:49.397Z,94.17
2023-04-16T00:49:49.502Z,94.21
2023-04-16T00:50:49.680Z,94.17
2023-04-16T00:51:49.849Z,94.25
2023-04-16T00:52:49.902Z,94.30
2023-04-16T00:53:50.088Z,94.25
2023-04-16T00:54:50.275Z,94.33
2023-04-16T00:55:50.291Z,94.33
2023-04-16T00:56:50.439Z,94.38
2023-04-16T00:57:50.592Z,94.34
2023-04-16T00:58:50.695Z,94.25
2023-04-16T00:59:50.878Z,94.27
2023-04-16T01:00:50.957Z,94.23
2023-04-16T01:01:51.172Z,94.30
2023-04-16T01:02:51.498Z,94.33
2023-04-16T01:03:51.485Z,94.34
2023-04-16T01:04:51.554Z,94.37
2023-04-16T01:05:51.607Z,94.40
2023-04-16T01:06:51.785Z,94.42
2023-04-16T01:07:51.939Z,94.36
2023-04-16T01:08:52.023Z,94.38
2023-04-16T01:09:52.171Z,94.35
2023-04-16T01:10:52.325Z,94.39
2023-04-16T01:11:52.426Z,94.39
2023-04-16T01:12:52.565Z,94.35
2023-04-16T01:13:52.654Z,94.41
2023-04-16T01:14:52.866Z,94.41
2023-04-16T01:15:52.991Z,94.43
2023-04-16T01:16:53.357Z,94.46
2023-04-16T01:17:53.212Z,94.39
2023-04-16T01:18:53.323Z,94.48
2023-04-16T01:19:53.531Z,94.44
2023-04-16T01:20:53.620Z,94.50
2023-04-16T01:21:53.751Z,94.49
2023-04-16T01:22:53.830Z,94.49
2023-04-16T01:23:54.083Z,94.42
2023-04-16T01:24:54.169Z,94.51
2023-04-16T01:25:54.374Z,94.55
2023-04-16T01:26:54.414Z,94.51
2023-04-16T01:27:54.695Z,94.53
2023-04-16T01:28:54.624Z,94.58
2023-04-16T01:29:54.775Z,94.58
2023-04-16T01:30:54.942Z,94.57
2023-04-16T01:31:55.152Z,94.61
2023-04-16T01:32:55.247Z,94.52
2023-04-16T01:33:55.363Z,94.55
2023-04-16T01:34:55.557Z,94.59
2023-04-16T01:35:55.592Z,94.59
2023-04-16T01:36:55.736Z,94.64
2023-04-16T01:37:55.800Z,94.60
2023-04-16T01:38:55.955Z,94.55
2023-04-16T01:39:56.112Z,94.62
2023-04-16T01:40:56.348Z,94.63
2023-04-16T01:41:56.400Z,94.64
2023-04-16T01:42:56.526Z,94.72
2023-04-16T01:43:56.626Z,94.70
2023-04-16T01:44:56.733Z,94.74
2023-04-16T01:45:56.871Z,94.74
2023-04-16T01:46:57.077Z,94.71
2023-04-16T01:47:57.231Z,94.72
2023-04-16T01:48:57.229Z,94.75
2023-04-16T01:49:57.345Z,94.73
2023-04-16T01:50:57.517Z,94.76
2023-04-16T01:51:57.627Z,94.80
2023-04-16T01:52:57.728Z,94.68
2023-04-16T01:53:57.815Z,94.68
2023-04-16T01:54:58.043Z,94.69
2023-04-16T01:55:58.065Z,94.78
2023-04-16T01:56:58.174Z,94.79
2023-04-16T01:57:58.283Z,94.73
2023-04-16T01:58:58.458Z,94.74
2023-04-16T01:59:58.616Z,94.76
2023-04-16T02:00:58.767Z,94.79
2023-04-16T02:01:58.942Z,94.83
2023-04-16T02:02:59.056Z,94.83
2023-04-16T02:03:59.222Z,94.76
2023-04-16T02:04:59.362Z,94.79
2023-04-16T02:05:59.352Z,94.85
2023-04-16T02:06:59.634Z,94.87
2023-04-16T02:07:59.607Z,94.90
2023-04-16T02:08:59.764Z,94.91
2023-04-16T02:09:59.987Z,94.90
2023-04-16T02:11:00.028Z,94.91
2023-04-16T02:12:00.219Z,94.98
2023-04-16T02:13:00.335Z,94.96
2023-04-16T02:14:00.468Z,94.97
2023-04-16T02:15:00.665Z,94.95
2023-04-16T02:16:00.737Z,94.95
2023-04-16T02:17:00.994Z,95.03
2023-04-16T02:18:01.045Z,95.06
2023-04-16T02:19:01.046Z,95.04
2023-04-16T02:20:01.153Z,95.03
2023-04-16T02:21:01.283Z,94.96
2023-04-16T02:22:01.476Z,94.94
2023-04-16T02:23:01.576Z,94.97
2023-04-16T02:24:01.687Z,94.93
2023-04-16T02:25:01.868Z,94.94
2023-04-16T02:26:02.055Z,95.00
2023-04-16T02:27:02.142Z,94.99
2023-04-16T02:28:02.324Z,94.99
2023-04-16T02:29:02.337Z,95.04
2023-04-16T02:30:02.577Z,95.11
2023-04-16T02:31:02.649Z,95.01
2023-04-16T02:32:02.870Z,95.01
2023-04-16T02:33:02.950Z,94.93
2023-04-16T02:34:02.991Z,94.93
2023-04-16T02:35:03.332Z,95.01
2023-04-16T02:36:03.359Z,95.09
2023-04-16T02:37:03.490Z,95.07
2023-04-16T02:38:03.553Z,94.99
2023-04-16T02:39:03.667Z,95.05
2023-04-16T02:40:03.782Z,95.03
2023-04-16T02:41:03.981Z,94.95
2023-04-16T02:42:04.126Z,95.07
2023-04-16T02:43:04.177Z,95.12
2023-04-16T02:44:04.287Z,95.01
2023-04-16T02:45:04.431Z,95.08
2023-04-16T02:46:04.605Z,95.03
2023-04-16T02:47:04.710Z,95.06
2023-04-16T02:48:04.871Z,95.15
2023-04-16T02:49:04.924Z,95.19
2023-04-16T02:50:05.101Z,95.17
2023-04-16T02:51:05.286Z,95.19
2023-04-16T02:52:05.507Z,95.31
2023-04-16T02:53:05.442Z,95.31
2023-04-16T02:54:05.633Z,95.30
2023-04-16T02:55:05.947Z,95.23
2023-04-16T02:56:05.947Z,95.24
2023-04-16T02:57:05.956Z,95.30
2023-04-16T02:58:06.071Z,95.34
2023-04-16T02:59:06.364Z,95.31
2023-04-16T03:00:06.365Z,95.35
2023-04-16T03:01:06.484Z,95.31
2023-04-16T03:02:06.703Z,95.32
2023-04-16T03:03:06.786Z,95.36
2023-04-16T03:04:06.957Z,95.34
2023-04-16T03:05:07.009Z,95.33
2023-04-16T03:06:07.240Z,95.34
2023-04-16T03:07:07.334Z,95.31
2023-04-16T03:08:07.438Z,95.30
2023-04-16T03:09:08.039Z,95.29
2023-04-16T03:10:07.662Z,95.33
2023-04-16T03:11:07.782Z,95.35
2023-04-16T03:12:08.085Z,95.39
2023-04-16T03:13:08.008Z,95.39
2023-04-16T03:14:08.192Z,95.36
2023-04-16T03:15:08.434Z,95.35
2023-04-16T03:16:08.459Z,95.35
2023-04-16T03:17:08.594Z,95.40
2023-04-16T03:18:08.811Z,95.43
2023-04-16T03:19:09.199Z,95.40
2023-04-16T03:20:08.970Z,95.39
2023-04-16T03:21:09.152Z,95.38
2023-04-16T03:22:09.201Z,95.38
2023-04-16T03:23:09.328Z,95.46
2023-04-16T03:24:09.487Z,95.52
2023-04-16T03:25:09.682Z,95.44
2023-04-16T03:26:09.736Z,95.48
2023-04-16T03:27:09.864Z,95.50
2023-04-16T03:28:10.034Z,95.47
2023-04-16T03:29:10.339Z,95.48
2023-04-16T03:30:10.302Z,95.49
2023-04-16T03:31:10.550Z,95.48
2023-04-16T03:32:10.590Z,95.49
2023-04-16T03:33:10.682Z,95.53
2023-04-16T03:34:10.817Z,95.53
2023-04-16T03:35:11.017Z,95.51
2023-04-16T03:36:11.167Z,95.49
2023-04-16T03:37:11.260Z,95.52
2023-04-16T03:38:11.347Z,95.53
2023-04-16T03:39:11.667Z,95.47
2023-04-16T03:40:11.627Z,95.50
2023-04-16T03:41:11.754Z,95.57
2023-04-16T03:42:11.896Z,95.59
2023-04-16T03:43:12.023Z,95.60
2023-04-16T03:44:12.105Z,95.55
2023-04-16T03:45:12.236Z,95.56
2023-04-16T03:46:12.443Z,95.56
2023-04-16T03:47:12.607Z,95.54
2023-04-16T03:48:12.711Z,95.58
2023-04-16T03:49:12.751Z,95.54
2023-04-16T03:50:12.987Z,95.59
2023-04-16T03:51:13.003Z,95.63
2023-04-16T03:52:13.152Z,95.65
2023-04-16T03:53:13.225Z,95.63
2023-04-16T03:54:13.399Z,95.64
2023-04-16T03:55:13.592Z,95.65
2023-04-16T03:56:13.643Z,95.60
2023-04-16T03:57:13.855Z,95.61
2023-04-16T03:58:13.980Z,95.60
2023-04-16T03:59:14.104Z,95.59
2023-04-16T04:00:14.219Z,95.67
2023-04-16T04:01:14.308Z,95.73
2023-04-16T04:02:14.553Z,95.77
2023-04-16T04:03:14.696Z,95.76
2023-04-16T04:04:14.797Z,95.67
2023-04-16T04:05:14.794Z,95.67
2023-04-16T04:06:14.922Z,95.63
2023-04-16T04:07:15.095Z,95.66
2023-04-16T04:08:15.206Z,95.69
2023-04-16T04:09:15.325Z,95.68
2023-04-16T04:10:15.446Z,95.65
2023-04-16T04:11:15.625Z,95.65
2023-04-16T04:12:15.763Z,95.67
2023-04-16T04:13:15.874Z,95.69
2023-04-16T04:14:16.023Z,95.66
2023-04-16T04:15:16.281Z,95.71
2023-04-16T04:16:16.250Z,95.75
2023-04-16T04:17:16.431Z,95.78
2023-04-16T04:18:16.559Z,95.79
2023-04-16T04:19:16.595Z,95.80
2023-04-16T04:20:16.802Z,95.80
2023-04-16T04:21:16.881Z,95.82
2023-04-16T04:22:17.049Z,95.82
2023-04-16T04:23:17.196Z,95.81
2023-04-16T04:24:17.436Z,95.75
2023-04-16T04:25:17.497Z,95.74
2023-04-16T04:26:17.707Z,95.79
2023-04-16T04:27:17.640Z,95.86
2023-04-16T04:28:17.749Z,95.84
2023-04-16T04:29:17.921Z,95.80
2023-04-16T04:30:18.048Z,95.84
2023-04-16T04:31:18.200Z,95.89
2023-04-16T04:32:18.390Z,95.92
2023-04-16T04:33:18.446Z,95.84
2023-04-16T04:34:18.544Z,95.83
2023-04-16T04:35:18.813Z,95.87
2023-04-16T04:36:18.830Z,95.87
2023-04-16T04:37:18.961Z,95.83
2023-04-16T04:38:19.043Z,95.81
2023-04-16T04:39:19.205Z,95.85
2023-04-16T04:40:19.321Z,95.85
2023-04-16T04:41:19.480Z,95.84
2023-04-16T04:42:19.547Z,95.83
2023-04-16T04:43:19.681Z,95.85
2023-04-16T04:44:19.749Z,95.85
2023-04-16T04:45:19.917Z,95.88
2023-04-16T04:46:20.175Z,95.86
2023-04-16T04:47:20.257Z,95.89
2023-04-16T04:48:20.328Z,95.88
2023-04-16T04:49:20.406Z,95.90
2023-04-16T04:50:20.576Z,95.90
2023-04-16T04:51:20.824Z,95.89
2023-04-16T04:52:20.803Z,95.90
2023-04-16T04:53:20.927Z,95.92
2023-04-16T04:54:21.048Z,95.90
2023-04-16T04:55:21.314Z,95.88
2023-04-16T04:56:21.400Z,95.91
2023-04-16T04:57:21.521Z,95.94
2023-04-16T04:58:21.598Z,95.95
2023-04-16T04:59:21.753Z,95.93
2023-04-16T05:00:21.862Z,95.85
2023-04-16T05:01:22.035Z,95.89
2023-04-16T05:02:22.215Z,95.91
2023-04-16T05:03:22.291Z,95.93
2023-04-16T05:04:22.332Z,95.94
2023-04-16T05:05:22.562Z,95.93
2023-04-16T05:06:22.617Z,95.96
2023-04-16T05:07:22.768Z,95.93
2023-04-16T05:08:22.888Z,95.92
2023-04-16T05:09:23.002Z,95.93
2023-04-16T05:10:23.101Z,95.90
2023-04-16T05:11:23.184Z,95.92
2023-04-16T05:12:23.367Z,95.89
2023-04-16T05:13:23.498Z,95.95
2023-04-16T05:14:23.721Z,95.94
2023-04-16T05:15:23.864Z,95.98
2023-04-16T05:16:24.017Z,95.97
2023-04-16T05:17:24.061Z,96.01
2023-04-16T05:18:24.224Z,96.03
2023-04-16T05:19:24.346Z,96.02
2023-04-16T05:20:24.404Z,95.99
2023-04-16T05:21:24.529Z,95.95
2023-04-16T05:22:24.630Z,96.03
2023-04-16T05:23:24.857Z,96.03
2023-04-16T05:24:24.897Z,96.04
2023-04-16T05:25:25.047Z,96.01
2023-04-16T05:26:25.149Z,96.04
2023-04-16T05:27:25.289Z,96.02
2023-04-16T05:28:25.430Z,96.04
2023-04-16T05:29:25.551Z,96.08
2023-04-16T05:30:25.686Z,96.08
2023-04-16T05:31:25.825Z,96.04
2023-04-16T05:32:25.940Z,96.06
2023-04-16T05:33:26.031Z,96.07
2023-04-16T05:34:26.188Z,96.06
2023-04-16T05:35:26.348Z,96.10
2023-04-16T05:36:26.401Z,96.11
2023-04-16T05:37:26.555Z,96.07
2023-04-16T05:38:26.730Z,96.05
2023-04-16T05:39:26.850Z,96.05
2023-04-16T05:40:26.946Z,96.04
2023-04-16T05:41:27.103Z,96.07
2023-04-16T05:42:27.230Z,96.11
2023-04-16T05:43:27.360Z,96.17
2023-04-16T05:44:27.521Z,96.19
2023-04-16T05:45:28.210Z,96.09
2023-04-16T05:46:27.726Z,96.10
2023-04-16T05:47:27.919Z,96.09
2023-04-16T05:48:28.056Z,96.15
2023-04-16T05:49:28.172Z,96.20
2023-04-16T05:50:28.282Z,96.17
2023-04-16T05:51:28.389Z,96.19
2023-04-16T05:52:28.528Z,96.17
2023-04-16T05:53:28.677Z,96.14
2023-04-16T05:54:28.800Z,96.15
2023-04-16T05:55:28.950Z,96.09
2023-04-16T05:56:29.060Z,96.12
2023-04-16T05:58:45.706Z,95.61
2023-04-16T05:59:45.841Z,96.30
2023-04-16T06:00:46.002Z,96.31
2023-04-16T06:01:46.107Z,96.28
2023-04-16T06:02:46.355Z,96.23
2023-04-16T06:03:46.530Z,96.27
2023-04-16T06:04:48.534Z,96.24
2023-04-16T06:05:47.044Z,96.27
2023-04-16T06:06:47.000Z,96.32
2023-04-16T06:07:47.043Z,96.31
2023-04-16T06:08:48.007Z,96.30
2023-04-16T06:09:47.316Z,96.31
2023-04-16T06:10:47.427Z,96.25
2023-04-16T06:11:47.457Z,96.22
2023-04-16T06:12:47.603Z,96.23
2023-04-16T06:13:47.733Z,96.23
2023-04-16T06:14:47.877Z,96.24
2023-04-16T06:15:48.197Z,96.24
2023-04-16T06:16:48.228Z,96.24
2023-04-16T06:17:48.445Z,96.23
2023-04-16T06:18:50.622Z,96.25
2023-04-16T06:19:48.552Z,96.24
2023-04-16T06:20:48.729Z,96.20
2023-04-16T06:21:53.580Z,96.20
2023-04-16T06:22:49.285Z,96.24
2023-04-16T06:23:49.100Z,96.22
2023-04-16T06:24:49.252Z,96.20
2023-04-16T06:25:50.807Z,96.23
2023-04-16T06:26:49.475Z,96.26
2023-04-16T06:28:01.007Z,96.23
2023-04-16T06:28:49.673Z,96.22
2023-04-16T06:29:49.824Z,96.23
2023-04-16T06:30:49.960Z,96.22
2023-04-16T06:31:50.173Z,96.21
2023-04-16T06:32:50.287Z,96.24
2023-04-16T06:33:50.402Z,96.27
2023-04-16T06:34:50.509Z,96.28
2023-04-16T06:35:50.606Z,96.28
2023-04-16T06:36:50.750Z,96.23
2023-04-16T06:37:50.970Z,96.23
2023-04-16T06:38:51.021Z,96.20
2023-04-16T06:39:51.181Z,96.22
2023-04-16T06:40:51.294Z,96.17
2023-04-16T06:41:51.449Z,96.17
2023-04-16T06:42:51.588Z,96.20
2023-04-16T06:43:51.678Z,96.22
2023-04-16T06:44:51.828Z,96.24
2023-04-16T06:45:51.953Z,96.28
2023-04-16T06:46:52.161Z,96.29
2023-04-16T06:47:52.264Z,96.23
2023-04-16T06:48:52.360Z,96.26
2023-04-16T06:49:52.459Z,96.28
2023-04-16T06:50:52.598Z,96.27
2023-04-16T06:51:52.810Z,96.25
2023-04-16T06:52:52.889Z,96.22
2023-04-16T06:53:53.055Z,96.22
2023-04-16T06:54:53.158Z,96.28
2023-04-16T06:55:53.644Z,96.28
2023-04-16T06:56:53.458Z,96.31
2023-04-16T06:57:53.599Z,96.29
2023-04-16T06:58:53.783Z,96.29
2023-04-16T06:59:53.843Z,96.31
2023-04-16T07:00:54.023Z,96.30
2023-04-16T07:01:54.139Z,96.30
2023-04-16T07:02:56.355Z,96.29
2023-04-16T07:03:54.614Z,96.26
2023-04-16T07:04:54.519Z,96.30
2023-04-16T07:05:54.602Z,96.29
2023-04-16T07:06:54.717Z,96.30
2023-04-16T07:07:54.856Z,96.30
2023-04-16T07:08:54.966Z,96.32
2023-04-16T07:09:55.128Z,96.26
2023-04-16T07:10:55.227Z,96.30
2023-04-16T07:11:55.548Z,96.35
2023-04-16T07:12:55.486Z,96.42
2023-04-16T07:13:55.571Z,96.42
2023-04-16T07:14:55.655Z,96.46
2023-04-16T07:15:55.818Z,96.43
2023-04-16T07:16:56.012Z,96.38
2023-04-16T07:17:56.210Z,96.32
2023-04-16T07:18:56.168Z,96.29
2023-04-16T07:19:56.305Z,96.30
2023-04-16T07:20:56.449Z,96.25
2023-04-16T07:21:56.603Z,96.31
2023-04-16T07:22:56.770Z,96.33
2023-04-16T07:23:56.928Z,96.37
2023-04-16T07:24:57.153Z,96.27
2023-04-16T07:25:57.157Z,96.19
2023-04-16T07:26:57.309Z,96.23
2023-04-16T07:27:57.363Z,96.27
2023-04-16T07:28:57.473Z,96.24
2023-04-16T07:29:57.649Z,96.25
2023-04-16T07:30:57.786Z,96.26
2023-04-16T07:31:57.948Z,96.25
2023-04-16T07:32:58.084Z,96.20
2023-04-16T07:33:58.141Z,96.22
2023-04-16T07:34:58.299Z,96.33
2023-04-16T07:35:58.385Z,96.36
2023-04-16T07:36:58.581Z,96.35
2023-04-16T07:37:58.683Z,96.28
2023-04-16T07:38:58.779Z,96.27
2023-04-16T07:39:58.964Z,96.26
2023-04-16T07:40:59.100Z,96.25
2023-04-16T07:41:59.226Z,96.31
2023-04-16T07:42:59.337Z,96.27
2023-04-16T07:43:59.417Z,96.15
2023-04-16T07:44:59.669Z,96.16
2023-04-16T07:45:59.746Z,96.25
2023-04-16T07:46:59.890Z,96.27
2023-04-16T07:47:59.950Z,96.29
2023-04-16T07:49:00.063Z,96.28
2023-04-16T07:50:00.284Z,96.25
2023-04-16T07:51:00.420Z,96.30
2023-04-16T07:52:00.428Z,96.28
2023-04-16T07:53:00.541Z,96.29
2023-04-16T07:54:00.680Z,96.26
2023-04-16T07:55:00.853Z,96.22
2023-04-16T07:56:00.960Z,96.21
2023-04-16T07:57:01.182Z,96.23
2023-04-16T07:58:01.314Z,96.30
2023-04-16T07:59:14.275Z,96.29
2023-04-16T08:00:02.577Z,96.23
2023-04-16T08:01:01.619Z,96.28
2023-04-16T08:02:01.810Z,96.35
2023-04-16T08:03:01.939Z,96.42
2023-04-16T08:04:02.135Z,96.40
2023-04-16T08:05:02.103Z,96.42
2023-04-16T08:06:02.226Z,96.29
2023-04-16T08:07:02.332Z,96.30
2023-04-16T08:08:02.542Z,96.32
2023-04-16T08:09:02.631Z,96.27
2023-04-16T08:10:02.720Z,96.26
2023-04-16T08:11:03.186Z,96.20
2023-04-16T08:12:03.028Z,96.24
2023-04-16T08:13:03.182Z,96.34
2023-04-16T08:14:03.307Z,96.38
2023-04-16T08:15:03.384Z,96.34
2023-04-16T08:16:03.592Z,96.35
2023-04-16T08:17:03.713Z,96.37
2023-04-16T08:18:03.840Z,96.45
2023-04-16T08:19:03.930Z,96.52
2023-04-16T08:20:04.052Z,96.44
2023-04-16T08:21:04.177Z,96.34
2023-04-16T08:22:04.311Z,96.36
2023-04-16T08:23:04.422Z,96.33
2023-04-16T08:24:04.570Z,96.30
2023-04-16T08:25:04.704Z,96.33
2023-04-16T08:26:04.849Z,96.34
2023-04-16T08:27:15.536Z,96.25
2023-04-16T08:28:06.175Z,96.22
2023-04-16T08:29:05.223Z,96.32
2023-04-16T08:30:05.333Z,96.35
2023-04-16T08:31:05.543Z,96.35
2023-04-16T08:32:05.781Z,96.33
2023-04-16T08:33:05.758Z,96.24
2023-04-16T08:34:05.807Z,96.32
2023-04-16T08:35:05.961Z,96.39
2023-04-16T08:36:06.118Z,96.40
2023-04-16T08:37:06.274Z,96.33
2023-04-16T08:38:06.361Z,96.25
2023-04-16T08:39:06.483Z,96.28
2023-04-16T08:40:06.674Z,96.33
2023-04-16T08:41:06.808Z,96.29
2023-04-16T08:42:06.885Z,96.27
2023-04-16T08:43:06.984Z,96.23
2023-04-16T08:44:07.214Z,96.25
2023-04-16T08:45:07.280Z,96.33
2023-04-16T08:46:07.441Z,96.36
2023-04-16T08:47:07.593Z,96.35
2023-04-16T08:48:07.684Z,96.37
2023-04-16T08:49:08.167Z,96.28
2023-04-16T08:50:07.991Z,96.23
2023-04-16T08:51:08.053Z,96.24
2023-04-16T08:52:08.163Z,96.30
2023-04-16T08:53:08.351Z,96.27
2023-04-16T08:54:08.420Z,96.33
2023-04-16T08:55:08.532Z,96.40
2023-04-16T08:56:08.679Z,96.42
2023-04-16T08:57:08.822Z,96.37
2023-04-16T08:58:08.992Z,96.37
2023-04-16T08:59:09.516Z,96.29
2023-04-16T09:00:09.608Z,96.31
2023-04-16T09:01:09.542Z,96.28
2023-04-16T09:02:09.668Z,96.29
2023-04-16T09:03:09.715Z,96.31
2023-04-16T09:04:09.980Z,96.33
2023-04-16T09:05:09.978Z,96.32
2023-04-16T09:06:10.009Z,96.25
2023-04-16T09:07:10.201Z,96.28
2023-04-16T09:08:10.279Z,96.35
2023-04-16T09:09:10.641Z,96.44
2023-04-16T09:10:10.535Z,96.49
2023-04-16T09:11:10.686Z,96.42
2023-04-16T09:12:10.783Z,96.45
2023-04-16T09:13:10.881Z,96.44
2023-04-16T09:14:11.066Z,96.33
2023-04-16T09:15:11.149Z,96.34
2023-04-16T09:16:11.271Z,96.34
2023-04-16T09:17:11.362Z,96.34
2023-04-16T09:18:11.488Z,96.36
2023-04-16T09:19:11.951Z,96.41
2023-04-16T09:20:11.742Z,96.44
2023-04-16T09:21:11.878Z,96.42
2023-04-16T09:22:12.083Z,96.36
2023-04-16T09:23:12.142Z,96.33
2023-04-16T09:24:12.269Z,96.32
2023-04-16T09:25:12.369Z,96.26
2023-04-16T09:26:12.493Z,96.30
2023-04-16T09:27:12.646Z,96.36
2023-04-16T09:28:12.903Z,96.34
2023-04-16T09:29:12.863Z,96.40
2023-04-16T09:30:12.998Z,96.46
2023-04-16T09:31:13.129Z,96.62
2023-04-16T09:32:13.254Z,96.71
2023-04-16T09:33:13.328Z,96.77
2023-04-16T09:34:13.560Z,96.81
2023-04-16T09:35:13.705Z,96.89
2023-04-16T09:36:13.744Z,96.95
2023-04-16T09:37:13.886Z,96.99
2023-04-16T09:38:13.983Z,97.01
2023-04-16T09:39:14.153Z,96.96
2023-04-16T09:40:14.311Z,96.91
2023-04-16T09:41:14.435Z,96.80
2023-04-16T09:42:14.535Z,96.55
2023-04-16T09:43:14.635Z,96.49
2023-04-16T09:44:14.803Z,96.49
2023-04-16T09:45:14.954Z,96.49
2023-04-16T09:46:15.066Z,96.36
2023-04-16T09:47:15.119Z,96.18
2023-04-16T09:48:15.276Z,96.14
2023-04-16T09:49:15.428Z,96.18
2023-04-16T09:50:17.779Z,96.23
2023-04-16T09:51:15.604Z,96.32
2023-04-16T09:52:15.742Z,96.37
2023-04-16T09:53:15.883Z,96.36
2023-04-16T09:54:16.048Z,96.41
2023-04-16T09:55:16.165Z,96.45
2023-04-16T09:56:16.318Z,96.45
2023-04-16T09:57:16.508Z,96.42
2023-04-16T09:58:16.603Z,96.46
2023-04-16T09:59:16.646Z,96.44
2023-04-16T10:00:16.824Z,96.33
2023-04-16T10:01:16.943Z,96.31
2023-04-16T10:02:17.107Z,96.40
2023-04-16T10:03:17.322Z,96.45
2023-04-16T10:04:17.414Z,96.46
2023-04-16T10:05:17.485Z,96.33
2023-04-16T10:06:17.535Z,96.28
2023-04-16T10:07:17.764Z,96.35
2023-04-16T10:08:17.939Z,96.35
2023-04-16T10:09:17.950Z,96.36
2023-04-16T10:10:18.136Z,96.28
2023-04-16T10:11:18.309Z,96.28
2023-04-16T10:12:18.340Z,96.28
2023-04-16T10:13:18.486Z,96.31
2023-04-16T10:14:18.630Z,96.31
2023-04-16T10:15:18.861Z,96.17
2023-04-16T10:16:18.940Z,96.16
2023-04-16T10:17:19.031Z,96.19
2023-04-16T10:18:19.187Z,96.20
2023-04-16T10:19:19.390Z,96.23
2023-04-16T10:20:19.475Z,96.23
2023-04-16T10:21:19.560Z,96.31
2023-04-16T10:22:19.660Z,96.43
2023-04-16T10:23:19.863Z,96.50
2023-04-16T10:24:19.986Z,96.55
2023-04-16T10:25:20.095Z,96.61
2023-04-16T10:26:20.224Z,96.48
2023-04-16T10:27:20.391Z,96.26
2023-04-16T10:28:20.574Z,96.29
2023-04-16T10:29:20.573Z,96.44
2023-04-16T10:30:20.721Z,96.48
2023-04-16T10:31:20.977Z,96.47
2023-04-16T10:32:21.094Z,96.40
2023-04-16T10:33:21.137Z,96.42
2023-04-16T10:34:21.310Z,96.45
2023-04-16T10:35:21.454Z,96.48
2023-04-16T10:36:21.532Z,96.47
2023-04-16T10:37:21.729Z,96.39
2023-04-16T10:38:21.792Z,96.25
2023-04-16T10:39:21.916Z,96.27
2023-04-16T10:40:22.029Z,96.34
2023-04-16T10:41:22.266Z,96.18
2023-04-16T10:42:22.314Z,96.09
2023-04-16T10:43:22.439Z,96.09
2023-04-16T10:44:22.591Z,96.34
2023-04-16T10:45:22.686Z,96.22
2023-04-16T10:46:22.887Z,96.08
2023-04-16T10:47:23.016Z,96.13
2023-04-16T10:48:23.184Z,96.32
2023-04-16T10:49:23.256Z,96.11
2023-04-16T10:50:23.367Z,96.06
2023-04-16T10:51:23.494Z,96.22
2023-04-16T10:52:23.932Z,96.19
2023-04-16T10:53:23.760Z,96.18
2023-04-16T10:54:23.923Z,96.26
2023-04-16T10:55:24.014Z,96.17
2023-04-16T10:56:24.169Z,96.18
2023-04-16T10:57:24.300Z,96.19
2023-04-16T10:58:24.474Z,96.23
2023-04-16T10:59:24.635Z,96.34
2023-04-16T11:00:24.766Z,96.49
2023-04-16T11:01:24.920Z,96.47
2023-04-16T11:02:27.179Z,96.38
2023-04-16T11:03:25.261Z,96.38
2023-04-16T11:04:25.498Z,96.21
2023-04-16T11:05:25.373Z,96.23
2023-04-16T11:06:25.494Z,96.19
2023-04-16T11:07:25.700Z,96.29
2023-04-16T11:08:26.379Z,96.43
2023-04-16T11:09:25.961Z,96.47
2023-04-16T11:10:26.090Z,96.36
2023-04-16T11:11:26.205Z,96.04
2023-04-16T11:12:26.344Z,95.90
2023-04-16T11:13:26.482Z,95.97
2023-04-16T11:14:26.563Z,96.10
2023-04-16T11:15:26.742Z,96.27
2023-04-16T11:16:27.054Z,96.19
2023-04-16T11:17:27.026Z,96.06
2023-04-16T11:18:27.252Z,96.24
2023-04-16T11:19:27.225Z,96.35
2023-04-16T11:20:27.343Z,95.96
2023-04-16T11:21:27.427Z,96.12
2023-04-16T11:22:27.573Z,96.32
2023-04-16T11:23:27.688Z,96.22
2023-04-16T11:24:27.845Z,96.37
2023-04-16T11:25:27.953Z,96.64
2023-04-16T11:26:28.044Z,96.55
2023-04-16T11:27:28.242Z,96.19
2023-04-16T11:28:28.319Z,96.00
2023-04-16T11:29:28.435Z,96.13
2023-04-16T11:30:28.511Z,95.72
2023-04-16T11:31:28.732Z,95.72
2023-04-16T11:32:28.786Z,95.29
2023-04-16T11:33:28.971Z,95.32
2023-04-16T11:34:29.058Z,95.04
2023-04-16T11:35:29.215Z,95.33
2023-04-16T11:36:29.341Z,95.51
2023-04-16T11:37:29.438Z,95.37
2023-04-16T11:38:29.613Z,95.44
2023-04-16T11:39:29.701Z,95.94
2023-04-16T11:40:29.792Z,94.66
2023-04-16T11:41:29.915Z,94.38
2023-04-16T11:42:30.089Z,94.37
2023-04-16T11:43:30.206Z,94.78
2023-04-16T11:44:30.238Z,94.67
2023-04-16T11:45:30.442Z,94.82
2023-04-16T11:46:30.660Z,94.66
2023-04-16T11:47:30.841Z,94.78
2023-04-16T11:48:30.810Z,95.05
2023-04-16T11:49:30.863Z,94.51
2023-04-16T11:50:31.051Z,94.28
2023-04-16T11:51:31.144Z,94.38
2023-04-16T11:52:31.282Z,94.14
2023-04-16T11:53:31.554Z,94.31
2023-04-16T11:54:31.547Z,94.17
2023-04-16T11:55:31.711Z,94.64
2023-04-16T11:56:31.837Z,94.84
2023-04-16T11:57:31.951Z,94.96
2023-04-16T11:58:32.476Z,94.23
2023-04-16T11:59:32.292Z,94.27
2023-04-16T12:00:32.292Z,94.06
2023-04-16T12:01:32.437Z,93.55
2023-04-16T12:02:32.715Z,93.44
2023-04-16T12:03:32.895Z,93.64
2023-04-16T12:04:33.106Z,93.21
2023-04-16T12:05:32.953Z,93.14
2023-04-16T12:06:33.141Z,93.44
2023-04-16T12:07:33.252Z,93.57
2023-04-16T12:08:33.527Z,93.37
2023-04-16T12:09:33.660Z,93.38
2023-04-16T12:10:33.656Z,93.59
2023-04-16T12:11:33.748Z,94.15
2023-04-16T12:12:33.899Z,93.73
2023-04-16T12:13:34.000Z,93.82
2023-04-16T12:14:34.156Z,94.46
2023-04-16T12:15:34.316Z,94.88
2023-04-16T12:16:35.827Z,93.99
2023-04-16T12:17:34.542Z,92.27
2023-04-16T12:18:34.708Z,91.83
2023-04-16T12:19:34.822Z,90.75
2023-04-16T12:20:34.969Z,89.55
2023-04-16T12:21:35.081Z,90.34
2023-04-16T12:22:36.733Z,90.12
2023-04-16T12:23:35.411Z,90.26
2023-04-16T12:24:35.575Z,90.13
2023-04-16T12:25:35.672Z,91.18
2023-04-16T12:26:35.762Z,90.61
2023-04-16T12:27:35.870Z,90.09
2023-04-16T12:28:36.082Z,88.78
2023-04-16T12:29:36.126Z,90.28
2023-04-16T12:30:36.250Z,90.01
2023-04-16T12:31:36.379Z,90.07
2023-04-16T12:32:36.470Z,89.54
2023-04-16T12:33:36.688Z,87.85
2023-04-16T12:34:48.852Z,89.25
2023-04-16T12:35:37.837Z,88.33
2023-04-16T12:36:37.007Z,87.18
2023-04-16T12:37:37.077Z,87.84
2023-04-16T12:38:37.257Z,88.12
2023-04-16T12:39:37.361Z,88.01
2023-04-16T12:40:37.526Z,88.13
2023-04-16T12:41:37.644Z,88.31
2023-04-16T12:42:37.756Z,88.06
2023-04-16T12:43:37.932Z,88.74
2023-04-16T12:44:38.036Z,88.66
2023-04-16T12:45:38.164Z,88.35
2023-04-16T12:46:38.447Z,88.48
2023-04-16T12:47:38.420Z,88.60
2023-04-16T12:48:38.578Z,89.15
2023-04-16T12:49:38.688Z,89.34
2023-04-16T12:50:38.761Z,89.07
2023-04-16T12:51:38.951Z,89.66
2023-04-16T12:52:39.034Z,88.62
2023-04-16T12:53:39.195Z,87.66
2023-04-16T12:54:39.300Z,88.17
2023-04-16T12:55:39.455Z,88.72